Time;durP1;ratioP1;P1;durP2;ratioP2;P2;SDS_P1;SDS_P2;PMS_P1;PMS_P2;Temp;Humidity;BMP_temperature;BMP_pressure;BME280_temperature;BME280_humidity;BME280_pressure;Samples;Min_cycle;Max_cycle;Signal;HPM_P1;HPM_P2
2022/09/09 00:04:47;;;;;;;2.90;1.42;;;;;;;22.72;50.25;100715.19;4865195;29;20154;-78
2022/09/09 00:10:14;;;;;;;3.80;1.50;;;;;;;22.71;50.19;100710.88;4864524;29;20390;-79
2022/09/09 00:12:50;;;;;;;3.22;1.50;;;;;;;22.68;49.99;100715.34;4848190;29;20077;-79
2022/09/09 00:15:22;;;;;;;2.75;1.30;;;;;;;22.70;50.31;100706.53;4848687;29;20536;-78
2022/09/09 00:17:55;;;;;;;4.28;1.70;;;;;;;22.70;50.30;100708.28;4843211;29;20072;-78
2022/09/09 00:20:36;;;;;;;5.72;1.15;;;;;;;22.69;49.98;100707.44;4841574;29;20045;-79
2022/09/09 00:25:57;;;;;;;2.85;1.25;;;;;;;22.65;49.92;100708.44;4860414;29;21012;-78
2022/09/09 00:28:26;;;;;;;3.05;1.23;;;;;;;22.67;50.10;100706.63;4842329;29;20080;-78
2022/09/09 00:30:52;;;;;;;2.20;1.20;;;;;;;22.66;49.88;100712.78;4845195;29;20049;-78
2022/09/09 00:33:22;;;;;;;4.55;1.30;;;;;;;22.67;49.97;100709.25;4844139;29;20086;-78
2022/09/09 00:35:55;;;;;;;5.60;1.38;;;;;;;22.65;50.16;100704.97;4861591;29;20069;-78
2022/09/09 00:38:35;;;;;;;3.40;1.58;;;;;;;22.65;50.26;100718.09;4844502;29;20076;-78
2022/09/09 00:41:03;;;;;;;3.55;1.30;;;;;;;22.66;49.69;100709.31;4844427;29;20484;-78
2022/09/09 00:43:31;;;;;;;3.25;1.33;;;;;;;22.67;50.11;100704.00;4847641;29;20064;-78
2022/09/09 00:49:09;;;;;;;3.90;1.50;;;;;;;22.65;50.24;100699.72;4864486;29;21239;-78
2022/09/09 00:51:43;;;;;;;2.88;1.40;;;;;;;22.63;49.92;100701.53;4869448;29;20501;-78
2022/09/09 00:56:57;;;;;;;3.67;1.50;;;;;;;22.63;50.16;100702.41;4865545;29;20756;-78
2022/09/09 00:59:45;;;;;;;3.53;1.30;;;;;;;22.61;50.03;100696.34;4865629;29;20132;-78
2022/09/09 01:04:39;;;;;;;3.30;1.20;;;;;;;22.65;50.26;100697.09;4865278;29;20061;-79
2022/09/09 01:09:57;;;;;;;5.35;1.83;;;;;;;22.63;50.40;100694.53;4858789;29;20714;-79
2022/09/09 01:12:35;;;;;;;3.60;1.38;;;;;;;22.64;50.21;100696.22;4837155;29;20553;-79
2022/09/09 01:15:11;;;;;;;3.08;1.40;;;;;;;22.62;50.34;100698.03;4858060;29;20056;-79
2022/09/09 01:18:04;;;;;;;3.33;1.17;;;;;;;22.63;49.96;100698.91;4839426;29;20069;-79
2022/09/09 01:20:47;;;;;;;3.55;1.45;;;;;;;22.62;50.01;100694.56;4838714;29;20078;-79
2022/09/09 01:26:03;;;;;;;2.38;1.20;;;;;;;22.61;50.20;100685.84;4856230;29;20049;-79
2022/09/09 01:28:31;;;;;;;2.97;1.60;;;;;;;22.60;50.13;100686.75;4839874;29;20076;-79
2022/09/09 01:30:58;;;;;;;3.35;1.40;;;;;;;22.59;49.85;100685.88;4859187;29;20076;-79
2022/09/09 01:33:24;;;;;;;3.20;1.33;;;;;;;22.60;50.13;100694.59;4841635;29;20065;-79
2022/09/09 01:36:03;;;;;;;5.57;1.45;;;;;;;22.61;50.01;100692.88;4842299;29;20504;-80
2022/09/09 01:38:30;;;;;;;3.88;1.42;;;;;;;22.59;50.35;100687.66;4870051;29;20136;-79
2022/09/09 01:40:58;;;;;;;2.80;1.63;;;;;;;22.57;50.21;100689.47;4856354;29;20504;-80
2022/09/09 01:43:26;;;;;;;3.10;1.60;;;;;;;22.59;50.25;100688.50;4874805;29;20054;-78
2022/09/09 01:45:55;;;;;;;2.58;1.42;;;;;;;22.59;50.00;100682.41;4853568;29;20065;-78
2022/09/09 01:48:23;;;;;;;3.17;1.67;;;;;;;22.58;50.10;100680.69;4867291;29;20049;-78
2022/09/09 01:50:49;;;;;;;3.13;1.60;;;;;;;22.58;50.20;100680.69;4851569;29;20058;-78
2022/09/09 01:53:18;;;;;;;3.35;1.50;;;;;;;22.57;50.02;100679.84;4868427;29;20046;-78
2022/09/09 01:56:01;;;;;;;5.03;1.40;;;;;;;22.57;50.21;100679.00;4840559;29;20049;-78
2022/09/09 01:58:46;;;;;;;2.80;1.30;;;;;;;22.56;50.37;100675.50;4865337;29;20056;-78
2022/09/09 02:03:44;;;;;;;5.18;1.90;;;;;;;22.56;50.29;100672.88;4867293;29;20061;-78
2022/09/09 02:08:55;;;;;;;5.13;1.85;;;;;;;22.57;50.25;100673.75;4871647;29;20057;-79
2022/09/09 02:11:26;;;;;;;3.88;1.90;;;;;;;22.55;50.19;100670.31;4851470;29;20069;-78
2022/09/09 02:13:56;;;;;;;2.25;1.30;;;;;;;22.55;50.42;100670.31;4855681;29;20057;-79
2022/09/09 02:16:44;;;;;;;5.05;1.90;;;;;;;22.54;50.31;100671.22;4856623;29;20049;-79
2022/09/09 02:21:42;;;;;;;3.33;1.60;;;;;;;22.56;50.11;100661.56;4866164;29;20876;-79
2022/09/09 02:24:10;;;;;;;4.03;1.58;;;;;;;22.57;50.18;100668.50;4848504;29;20050;-78
2022/09/09 02:26:41;;;;;;;3.38;1.80;;;;;;;22.58;50.21;100670.19;4845275;29;20123;-78
2022/09/09 02:31:43;;;;;;;4.05;1.95;;;;;;;22.54;50.42;100663.38;4871399;29;20045;-78
2022/09/09 02:34:11;;;;;;;6.10;1.85;;;;;;;22.55;50.23;100657.19;4855089;29;20057;-78
2022/09/09 02:36:39;;;;;;;3.45;1.50;;;;;;;22.55;50.51;100655.44;4852791;29;20061;-78
2022/09/09 02:39:07;;;;;;;3.38;1.80;;;;;;;22.53;50.28;100654.63;4869785;29;20076;-79
2022/09/09 02:41:36;;;;;;;8.98;1.80;;;;;;;22.53;50.12;100648.53;4793404;29;2256113;-78
2022/09/09 02:44:03;;;;;;;4.20;1.75;;;;;;;22.52;50.41;100647.69;4853997;29;20053;-79
2022/09/09 02:46:56;;;;;;;2.47;1.35;;;;;;;22.53;50.19;100648.53;4866787;29;20057;-78
2022/09/09 02:52:53;;;;;;;6.50;2.20;;;;;;;22.46;50.43;100644.41;4699711;29;21289;-78
2022/09/09 02:55:31;;;;;;;4.85;1.90;;;;;;;22.45;50.28;100645.28;4852657;29;20441;-79
2022/09/09 02:57:59;;;;;;;4.18;2.20;;;;;;;22.42;50.34;100645.41;4852139;29;20061;-78
2022/09/09 03:00:28;;;;;;;3.80;1.80;;;;;;;22.45;50.26;100640.03;4848343;29;20484;-79
2022/09/09 03:02:54;;;;;;;4.07;1.77;;;;;;;22.49;50.43;100649.53;4814878;29;20050;-78
2022/09/09 03:05:20;;;;;;;3.95;1.83;;;;;;;22.47;50.30;100635.63;4824893;29;20061;-79
2022/09/09 03:07:46;;;;;;;4.32;2.00;;;;;;;22.45;50.47;100637.44;4843914;29;20504;-79
2022/09/09 03:10:12;;;;;;;4.07;1.95;;;;;;;22.45;50.01;100640.94;4829021;29;20096;-79
2022/09/09 03:12:38;;;;;;;3.55;1.80;;;;;;;22.44;50.31;100636.56;4841849;29;20064;-78
2022/09/09 03:15:04;;;;;;;3.55;1.90;;;;;;;22.42;50.14;100633.16;4828599;29;20136;-79
2022/09/09 03:17:29;;;;;;;5.43;2.40;;;;;;;22.40;50.28;100637.56;4811193;29;20049;-79
2022/09/09 03:19:55;;;;;;;5.15;1.67;;;;;;;22.41;50.35;100638.44;4813714;29;20049;-79
2022/09/09 03:22:21;;;;;;;4.28;1.90;;;;;;;22.41;50.20;100634.06;4842143;29;20077;-78
2022/09/09 03:24:46;;;;;;;3.25;1.58;;;;;;;22.41;50.40;100635.81;4814102;29;20083;-78
2022/09/09 03:27:14;;;;;;;3.50;1.60;;;;;;;22.41;50.18;100638.44;4821412;29;20453;-79
2022/09/09 03:29:38;;;;;;;3.50;1.60;;;;;;;22.39;50.12;100639.34;4847060;29;20842;-79
2022/09/09 03:32:04;;;;;;;7.00;1.80;;;;;;;22.37;50.32;100635.91;4831136;29;20053;-79
2022/09/09 03:34:29;;;;;;;3.60;1.85;;;;;;;22.34;50.02;100630.78;4831183;29;20106;-79
2022/09/09 03:36:55;;;;;;;3.50;1.73;;;;;;;22.33;50.63;100620.34;4843015;29;20058;-78
2022/09/09 03:39:20;;;;;;;3.38;1.40;;;;;;;22.37;50.59;100628.06;4838378;29;20074;-79
2022/09/09 03:41:48;;;;;;;6.00;1.70;;;;;;;22.38;50.14;100618.41;4841907;29;20111;-79
2022/09/09 03:46:39;;;;;;;6.22;1.70;;;;;;;22.35;50.15;100629.03;4856983;29;20049;-79
2022/09/09 03:49:04;;;;;;;4.15;1.98;;;;;;;22.32;50.30;100610.75;4842504;29;20049;-79
2022/09/09 03:51:36;;;;;;;2.38;1.10;;;;;;;22.33;50.39;100618.56;4840325;29;20045;-79
2022/09/09 03:54:07;;;;;;;3.80;1.40;;;;;;;22.38;50.36;100621.03;4859128;29;20133;-79
2022/09/09 03:56:34;;;;;;;3.83;1.65;;;;;;;22.33;50.12;100615.09;4840947;29;20141;-79
2022/09/09 03:58:59;;;;;;;2.95;1.40;;;;;;;22.35;49.98;100619.38;4841076;29;20046;-79
2022/09/09 04:01:24;;;;;;;3.83;1.77;;;;;;;22.33;50.45;100613.34;4840362;29;20060;-79
2022/09/09 04:03:50;;;;;;;3.63;1.75;;;;;;;22.32;50.11;100618.63;4847486;29;20050;-79
2022/09/09 04:06:17;;;;;;;3.30;1.50;;;;;;;22.32;50.09;100624.75;4838488;29;20042;-79
2022/09/09 04:08:48;;;;;;;3.55;1.50;;;;;;;22.33;50.20;100613.34;4872365;29;20049;-79
2022/09/09 04:11:15;;;;;;;4.20;1.40;;;;;;;22.33;50.01;100610.72;4832854;29;20069;-79
2022/09/09 04:13:42;;;;;;;2.90;1.42;;;;;;;22.33;50.27;100607.25;4865100;29;20059;-79
2022/09/09 04:16:10;;;;;;;4.28;1.70;;;;;;;22.32;50.04;100606.38;4831719;29;20077;-79
2022/09/09 04:18:35;;;;;;;3.72;1.60;;;;;;;22.35;49.88;100606.28;4843612;29;20065;-79
2022/09/09 04:21:01;;;;;;;4.50;1.55;;;;;;;22.36;50.07;100609.75;4844072;29;20060;-79
2022/09/09 04:23:30;;;;;;;3.55;1.50;;;;;;;22.36;49.92;100605.38;4828103;29;20140;-79
2022/09/09 04:25:58;;;;;;;1.98;1.20;;;;;;;22.36;49.94;100599.25;4830913;29;20141;-79
2022/09/09 04:28:26;;;;;;;3.17;1.65;;;;;;;22.33;50.02;100596.75;4841394;29;20065;-79
2022/09/09 04:30:52;;;;;;;3.92;1.60;;;;;;;22.33;49.82;100597.59;4844409;29;20500;-80
2022/09/09 04:33:18;;;;;;;3.05;1.63;;;;;;;22.30;49.70;100596.88;4842777;29;20063;-80
2022/09/09 04:35:48;;;;;;;4.63;1.83;;;;;;;22.26;50.10;100598.72;4843501;29;20118;-79
2022/09/09 04:40:42;;;;;;;3.07;1.63;;;;;;;22.30;49.92;100594.25;4858016;29;20084;-79
2022/09/09 04:43:08;;;;;;;2.80;1.33;;;;;;;22.31;49.79;100594.16;4831523;29;20417;-79
2022/09/09 04:45:34;;;;;;;3.25;1.67;;;;;;;22.26;49.92;100597.88;4849200;29;20128;-79
2022/09/09 04:47:59;;;;;;;4.82;1.83;;;;;;;22.26;50.16;100596.09;4815464;29;20121;-78
2022/09/09 04:50:25;;;;;;;4.78;1.40;;;;;;;22.31;50.13;100594.16;4844289;29;20094;-78
2022/09/09 04:52:50;;;;;;;3.97;1.10;;;;;;;22.43;50.08;100592.94;4834580;29;20140;-78
2022/09/09 04:55:16;;;;;;;1.98;0.88;;;;;;;22.51;49.64;100592.66;4853955;29;20053;-78
2022/09/09 04:57:48;;;;;;;1.88;1.00;;;;;;;22.55;49.82;100586.41;4854300;29;20126;-78
2022/09/09 05:02:42;;;;;;;2.30;0.98;;;;;;;22.58;49.65;100575.78;4853050;29;20049;-78
2022/09/09 05:05:07;;;;;;;3.83;1.05;;;;;;;22.58;49.60;100574.03;4853632;29;20053;-79
2022/09/09 05:07:33;;;;;;;2.92;0.70;;;;;;;22.58;49.66;100576.66;4868092;29;20105;-78
2022/09/09 05:09:58;;;;;;;1.98;0.82;;;;;;;22.60;49.54;100579.22;4834566;29;20065;-78
2022/09/09 05:12:25;;;;;;;1.45;0.80;;;;;;;22.59;49.63;100577.50;4865084;29;20113;-78
2022/09/09 05:14:52;;;;;;;4.03;0.88;;;;;;;22.61;49.67;100580.09;4838700;29;20077;-78
2022/09/09 05:17:17;;;;;;;1.58;0.68;;;;;;;22.62;49.53;100579.16;4831346;29;20502;-78
2022/09/09 05:19:43;;;;;;;1.60;0.75;;;;;;;22.59;49.64;100575.75;4827530;29;20064;-78
2022/09/09 05:22:11;;;;;;;2.33;0.70;;;;;;;22.61;49.78;100575.69;4859737;29;20113;-78
2022/09/09 05:24:37;;;;;;;2.38;0.80;;;;;;;22.61;49.69;100575.69;4810486;29;20114;-78
2022/09/09 05:27:05;;;;;;;2.08;0.90;;;;;;;22.62;49.63;100572.16;4842562;29;20140;-78
2022/09/09 05:29:33;;;;;;;1.95;0.70;;;;;;;22.63;49.38;100570.41;4825970;29;20053;-78
2022/09/09 05:31:59;;;;;;;2.13;0.90;;;;;;;22.63;49.53;100573.88;4828323;29;20053;-78
2022/09/09 05:34:24;;;;;;;2.78;0.82;;;;;;;22.64;49.44;100572.94;4840319;29;20049;-79
2022/09/09 05:36:50;;;;;;;1.40;0.75;;;;;;;22.65;49.71;100579.09;4827457;29;20060;-78
2022/09/09 05:39:16;;;;;;;2.15;0.90;;;;;;;22.65;49.25;100577.31;4810660;29;20552;-78
2022/09/09 05:41:42;;;;;;;2.10;0.80;;;;;;;22.65;49.72;100582.56;4810612;29;20145;-79
2022/09/09 05:44:07;;;;;;;2.13;0.90;;;;;;;22.66;49.60;100584.25;4831445;29;20060;-79
2022/09/09 05:46:33;;;;;;;2.95;0.98;;;;;;;22.66;49.49;100578.16;4846636;29;20049;-78
2022/09/09 05:48:58;;;;;;;2.88;1.08;;;;;;;22.66;49.30;100578.16;4848455;29;20054;-78
2022/09/09 05:51:29;;;;;;;5.70;1.20;;;;;;;22.61;49.48;100572.22;4817152;29;20053;-79
2022/09/09 05:53:58;;;;;;;4.97;1.52;;;;;;;22.54;49.24;100576.81;4851113;29;20390;-79
2022/09/09 05:56:26;;;;;;;4.45;1.73;;;;;;;22.52;49.24;100573.41;4848155;29;20058;-79
2022/09/09 05:58:53;;;;;;;4.18;1.58;;;;;;;22.53;49.36;100567.22;4866392;29;20072;-79
2022/09/09 06:01:26;;;;;;;6.82;1.67;;;;;;;22.52;49.21;100560.28;4851296;29;20132;-79
2022/09/09 06:03:52;;;;;;;7.43;3.22;;;;;;;22.53;49.11;100560.22;4851711;29;20141;-79
2022/09/09 06:08:45;;;;;;;12.50;2.92;;;;;;;22.58;49.34;100578.41;4857460;29;20065;-78
2022/09/09 06:13:39;;;;;;;7.25;2.50;;;;;;;22.44;48.95;100578.03;4856018;29;20053;-79
2022/09/09 06:16:08;;;;;;;10.45;2.40;;;;;;;22.35;48.83;100581.84;4859080;29;20100;-79
2022/09/09 06:18:34;;;;;;;6.90;2.40;;;;;;;22.26;48.85;100587.38;4859022;29;20072;-78
2022/09/09 06:21:03;;;;;;;6.45;2.15;;;;;;;22.16;48.98;100590.25;4828437;29;20053;-78
2022/09/09 06:23:28;;;;;;;9.73;2.20;;;;;;;22.11;49.15;100594.78;4843675;29;20412;-78
2022/09/09 06:26:09;;;;;;;7.43;1.80;;;;;;;22.02;49.53;100594.25;4837378;29;20049;-79
2022/09/09 06:28:36;;;;;;;8.68;2.08;;;;;;;22.04;49.50;100595.06;4855822;29;20085;-79
2022/09/09 06:31:04;;;;;;;7.90;2.10;;;;;;;22.12;49.10;100590.41;4848041;29;20049;-79
2022/09/09 06:33:35;;;;;;;10.70;2.15;;;;;;;22.04;49.14;100588.06;4839642;29;20383;-79
2022/09/09 06:36:03;;;;;;;7.72;2.00;;;;;;;22.08;49.61;100591.41;4853391;29;20065;-78
2022/09/09 06:38:29;;;;;;;7.32;2.17;;;;;;;22.09;49.36;100588.75;4844900;29;20058;-78
2022/09/09 06:40:56;;;;;;;6.40;1.88;;;;;;;22.05;49.37;100586.28;4813891;29;20057;-78
2022/09/09 06:43:25;;;;;;;4.32;1.63;;;;;;;22.03;49.32;100590.72;4829220;29;20070;-79
2022/09/09 06:46:03;;;;;;;6.95;2.00;;;;;;;22.03;49.50;100593.31;4850479;29;20065;-79
2022/09/09 06:48:28;;;;;;;6.88;2.15;;;;;;;22.00;49.50;100589.06;4834674;29;20557;-79
2022/09/09 06:51:02;;;;;;;8.82;2.13;;;;;;;21.89;49.68;100599.03;4837896;29;20049;-78
2022/09/09 06:53:28;;;;;;;5.68;1.98;;;;;;;21.90;50.00;100593.72;4867672;29;20041;-78
2022/09/09 06:55:54;;;;;;;7.05;1.90;;;;;;;21.92;49.82;100597.13;4813891;29;1163552;-79
2022/09/09 06:58:27;;;;;;;9.75;2.50;;;;;;;21.89;49.55;100597.25;4835746;29;20120;-79
2022/09/09 07:01:13;;;;;;;7.15;2.35;;;;;;;21.87;50.07;100595.59;4830090;29;20085;-78
2022/09/09 07:03:44;;;;;;;7.45;2.13;;;;;;;21.83;50.01;100596.59;4849499;29;20061;-79
2022/09/09 07:08:39;;;;;;;7.78;2.25;;;;;;;21.80;50.14;100589.69;4866750;29;20053;-79
2022/09/09 07:11:07;;;;;;;8.60;1.90;;;;;;;21.75;50.45;100591.56;4835790;29;20070;-79
2022/09/09 07:13:34;;;;;;;6.22;2.08;;;;;;;21.75;50.58;100583.72;4847008;29;20045;-79
2022/09/09 07:16:05;;;;;;;6.63;1.92;;;;;;;21.70;50.51;100591.72;4848197;29;20050;-79
2022/09/09 07:18:31;;;;;;;11.80;2.70;;;;;;;21.74;50.76;100585.47;4845023;29;20054;-79
2022/09/09 07:20:56;;;;;;;8.25;2.10;;;;;;;21.80;50.54;100591.41;4830250;29;20060;-79
2022/09/09 07:23:23;;;;;;;7.97;2.28;;;;;;;21.82;50.61;100600.09;4826765;29;20053;-79
2022/09/09 07:25:48;;;;;;;8.23;1.90;;;;;;;21.83;50.41;100586.09;4844299;29;20056;-79
2022/09/09 07:30:40;;;;;;;9.27;2.28;;;;;;;21.78;50.57;100576.63;4858492;29;20504;-79
2022/09/09 07:33:05;;;;;;;7.72;2.08;;;;;;;21.81;50.82;100580.91;4830244;29;20056;-79
2022/09/09 09:28:41;;;;;;;6.15;2.15;;;;;;;22.18;49.70;100603.31;5135857;23;20098;-85
2022/09/09 11:04:42;;;;;;;8.40;2.10;;;;;;;22.58;50.52;100586.28;5317997;23;20203;-82
2022/09/09 11:12:20;;;;;;;10.40;2.10;;;;;;;22.57;50.71;100585.44;5273796;23;20082;-84
2022/09/09 14:38:41;;;;;;;4.05;1.55;;;;;;;22.67;52.73;100609.59;5965153;23;20052;-81
2022/09/09 15:32:58;;;;;;;5.15;1.42;;;;;;;22.57;52.73;100621.28;5516463;23;20266;-85
2022/09/09 15:35:24;;;;;;;4.68;1.30;;;;;;;22.54;52.74;100613.53;4882670;29;20120;-87
2022/09/09 15:50:45;;;;;;;4.28;1.23;;;;;;;22.47;52.82;100622.50;5865763;23;20046;-78
2022/09/09 15:53:11;;;;;;;2.70;1.20;;;;;;;22.47;52.86;100620.75;4853328;29;20057;-77
2022/09/09 15:55:36;;;;;;;4.07;1.40;;;;;;;22.49;52.46;100620.69;4837496;29;20048;-78
2022/09/09 15:58:02;;;;;;;3.83;1.13;;;;;;;22.51;52.96;100624.13;4849789;29;20060;-76
2022/09/09 16:00:28;;;;;;;2.97;1.27;;;;;;;22.54;52.72;100638.00;4851578;29;20061;-79
2022/09/09 16:02:54;;;;;;;3.58;1.40;;;;;;;22.58;52.61;100633.47;4869885;29;20063;-78
2022/09/09 16:05:20;;;;;;;4.03;1.20;;;;;;;22.60;52.54;100636.91;4868275;29;20065;-79
2022/09/09 16:07:47;;;;;;;2.47;1.20;;;;;;;22.61;52.52;100636.03;4867301;29;20151;-79
2022/09/09 16:10:13;;;;;;;3.17;1.20;;;;;;;22.62;52.48;100637.72;4851895;29;20056;-79
2022/09/09 16:12:39;;;;;;;3.78;1.35;;;;;;;22.63;52.18;100630.72;4854947;29;20055;-78
2022/09/09 16:15:05;;;;;;;2.75;1.02;;;;;;;22.64;52.36;100633.28;4859863;29;20115;-78
2022/09/09 16:17:37;;;;;;;5.93;1.30;;;;;;;22.68;52.36;100628.81;4865329;29;20056;-78
2022/09/09 16:20:03;;;;;;;4.72;1.17;;;;;;;22.68;52.15;100628.81;4889652;29;20044;-78
2022/09/09 16:22:28;;;;;;;3.17;1.05;;;;;;;22.67;52.37;100633.19;4881648;29;20056;-76
2022/09/09 16:24:53;;;;;;;2.88;1.17;;;;;;;22.69;52.28;100635.75;4868215;29;20044;-79
2022/09/09 16:27:19;;;;;;;2.78;1.10;;;;;;;22.69;52.45;100634.00;4849652;29;20048;-79
2022/09/09 16:29:45;;;;;;;3.05;1.35;;;;;;;22.70;52.28;100632.22;4865964;29;20056;-79
2022/09/09 16:32:10;;;;;;;3.05;1.23;;;;;;;22.71;52.42;100641.78;4865077;29;20061;-76
2022/09/09 16:34:37;;;;;;;3.70;1.30;;;;;;;22.71;52.18;100637.44;4862934;29;20056;-77
2022/09/09 16:37:02;;;;;;;2.85;1.10;;;;;;;22.72;52.44;100643.53;4851235;29;20519;-79
2022/09/09 16:39:28;;;;;;;3.05;1.30;;;;;;;22.72;52.09;100641.75;4848899;29;20106;-78
2022/09/09 16:41:53;;;;;;;2.30;1.10;;;;;;;22.74;52.02;100639.09;4848798;29;20504;-78
2022/09/09 16:44:19;;;;;;;3.20;1.50;;;;;;;22.79;52.33;100640.63;4833994;29;20050;-78
2022/09/09 16:46:48;;;;;;;5.78;1.55;;;;;;;22.84;52.31;100637.84;4829263;29;20052;-78
2022/09/09 16:51:42;;;;;;;3.03;1.30;;;;;;;22.91;52.32;100631.50;4889305;29;20057;-78
2022/09/09 16:54:09;;;;;;;4.32;1.30;;;;;;;22.94;52.23;100633.13;4866953;29;20083;-78
2022/09/09 16:56:37;;;;;;;3.08;1.35;;;;;;;22.93;51.78;100632.28;4841455;29;20096;-79
2022/09/09 16:59:06;;;;;;;3.50;1.38;;;;;;;22.96;52.23;100636.56;4875134;29;20120;-78
2022/09/09 17:01:43;;;;;;;3.10;1.50;;;;;;;22.92;52.50;100633.19;4871082;29;20104;-78
2022/09/09 17:04:15;;;;;;;3.47;1.50;;;;;;;22.91;52.10;100644.59;4873783;29;20048;-79
2022/09/09 17:06:41;;;;;;;4.47;1.60;;;;;;;22.88;52.22;100647.31;4887441;29;20164;-78
2022/09/09 17:09:09;;;;;;;4.72;1.63;;;;;;;22.86;52.46;100654.38;4851497;29;20053;-78
2022/09/09 17:11:36;;;;;;;5.38;1.75;;;;;;;22.85;52.64;100651.84;4878779;29;20053;-78
2022/09/09 17:14:03;;;;;;;5.78;1.65;;;;;;;22.83;52.88;100661.53;4863611;29;20085;-78
2022/09/09 17:16:30;;;;;;;3.67;1.50;;;;;;;22.82;52.65;100665.03;4862296;29;20057;-77
2022/09/09 17:18:58;;;;;;;3.38;1.70;;;;;;;22.80;52.82;100671.22;4846597;29;20053;-77
2022/09/09 17:21:26;;;;;;;3.35;1.45;;;;;;;22.80;52.93;100671.22;4849770;29;20633;-77
2022/09/09 17:23:55;;;;;;;4.05;1.67;;;;;;;22.81;53.10;100672.06;4861108;29;20121;-77
2022/09/09 17:26:23;;;;;;;3.55;1.38;;;;;;;22.78;53.15;100673.03;4859198;29;20057;-77
2022/09/09 17:28:48;;;;;;;5.13;1.88;;;;;;;22.77;53.15;100670.44;4876743;29;20053;-77
2022/09/09 17:33:48;;;;;;;4.17;1.60;;;;;;;22.74;53.23;100676.66;4875274;29;20057;-78
2022/09/09 17:38:40;;;;;;;4.28;1.70;;;;;;;22.74;53.16;100673.19;4874791;29;20745;-78
2022/09/09 17:41:08;;;;;;;3.85;1.63;;;;;;;22.72;53.04;100677.63;4832118;29;20088;-77
2022/09/09 17:43:35;;;;;;;4.57;1.67;;;;;;;22.71;53.36;100683.75;4826644;29;20128;-78
2022/09/09 17:46:09;;;;;;;5.70;1.70;;;;;;;22.70;53.48;100687.31;4851328;29;20401;-78
2022/09/09 17:48:36;;;;;;;6.13;1.70;;;;;;;22.69;53.38;100685.56;4829685;29;20089;-78
2022/09/09 17:51:09;;;;;;;5.25;1.70;;;;;;;22.69;53.27;100682.97;4862227;29;20070;-79
2022/09/09 17:53:39;;;;;;;4.72;1.70;;;;;;;22.73;53.66;100689.81;4861322;29;20056;-80
2022/09/09 17:56:07;;;;;;;9.07;1.80;;;;;;;22.72;53.72;100690.75;4879499;29;20053;-79
2022/09/09 17:58:35;;;;;;;4.40;1.80;;;;;;;22.73;53.62;100693.31;4859761;29;20053;-79
2022/09/09 18:01:11;;;;;;;7.45;1.95;;;;;;;22.72;53.50;100698.63;4884912;29;20400;-79
2022/09/09 18:03:39;;;;;;;6.10;2.38;;;;;;;22.73;53.58;100695.06;4859836;29;20049;-79
2022/09/09 18:06:07;;;;;;;6.97;2.22;;;;;;;22.72;53.57;100698.63;4863173;29;20414;-78
2022/09/09 18:08:34;;;;;;;8.20;2.33;;;;;;;22.70;53.79;100690.78;4862542;29;20113;-78
2022/09/09 18:11:00;;;;;;;5.82;2.58;;;;;;;22.70;54.14;100696.03;4846787;29;20054;-78
2022/09/09 18:13:26;;;;;;;7.95;2.40;;;;;;;22.70;54.46;100693.41;4859554;29;20083;-80
2022/09/09 18:15:51;;;;;;;6.07;2.50;;;;;;;22.70;54.39;100695.19;4852841;29;20081;-78
2022/09/09 18:18:16;;;;;;;5.20;2.25;;;;;;;22.69;54.21;100703.94;4810827;29;20420;-78
2022/09/09 18:20:43;;;;;;;6.25;2.33;;;;;;;22.67;54.54;100704.00;4824777;29;20054;-78
2022/09/09 18:23:09;;;;;;;9.05;2.70;;;;;;;22.67;54.51;100705.75;4829634;29;20458;-78
2022/09/09 18:25:38;;;;;;;6.10;2.20;;;;;;;22.66;54.29;100715.41;4808070;29;20074;-78
2022/09/09 18:28:04;;;;;;;7.35;2.50;;;;;;;22.65;54.55;100720.72;4856980;29;20041;-77
2022/09/09 18:30:30;;;;;;;5.10;2.25;;;;;;;22.64;54.71;100724.22;4865287;29;20056;-78
2022/09/09 18:32:57;;;;;;;5.68;2.50;;;;;;;22.63;54.66;100723.38;4883218;29;20053;-79
2022/09/09 18:35:28;;;;;;;5.55;2.30;;;;;;;22.63;54.81;100727.78;4868466;29;20060;-82
2022/09/09 18:37:54;;;;;;;8.75;2.38;;;;;;;22.54;54.80;100731.56;4824925;29;20065;-79
2022/09/09 18:40:20;;;;;;;6.10;2.40;;;;;;;22.44;55.20;100732.75;4856335;29;20050;-79
2022/09/09 18:42:46;;;;;;;8.32;2.60;;;;;;;22.39;55.32;100736.34;4752460;29;3557221;-79
2022/09/09 18:45:11;;;;;;;6.65;2.08;;;;;;;22.36;54.98;100730.34;4880587;29;20049;-79
2022/09/09 18:47:37;;;;;;;4.78;2.10;;;;;;;22.35;54.70;100734.72;4841933;29;20061;-79
2022/09/09 18:50:10;;;;;;;6.55;2.35;;;;;;;22.37;55.04;100732.94;4869671;29;20057;-80
2022/09/09 18:52:35;;;;;;;7.75;2.78;;;;;;;22.34;55.02;100730.41;4889133;29;20057;-80
2022/09/09 18:55:00;;;;;;;5.43;2.22;;;;;;;22.34;54.72;100738.28;4875414;29;20060;-80
2022/09/09 18:57:27;;;;;;;6.75;2.67;;;;;;;22.34;55.22;100740.00;4884751;29;20049;-80
2022/09/09 18:59:54;;;;;;;9.30;2.90;;;;;;;22.34;55.31;100740.91;4855348;29;20053;-80
2022/09/09 19:02:20;;;;;;;6.07;2.40;;;;;;;22.34;55.26;100740.00;4885201;29;20075;-80
2022/09/09 19:04:46;;;;;;;6.45;2.40;;;;;;;22.33;55.50;100746.19;4869560;29;20081;-79
2022/09/09 19:07:11;;;;;;;6.57;2.60;;;;;;;22.32;55.26;100752.31;4854399;29;20061;-79
2022/09/09 19:09:37;;;;;;;7.72;3.08;;;;;;;22.30;55.50;100759.41;4850476;29;20081;-78
2022/09/09 19:12:02;;;;;;;10.40;2.80;;;;;;;22.27;54.96;100760.31;4866891;29;20061;-79
2022/09/09 19:14:28;;;;;;;8.77;2.97;;;;;;;22.27;55.02;100759.47;4822942;29;20061;-79
2022/09/09 19:16:55;;;;;;;5.93;2.65;;;;;;;22.26;55.17;100757.78;4864553;29;20485;-80
2022/09/09 19:19:23;;;;;;;5.45;2.70;;;;;;;22.26;54.85;100753.38;4864607;29;20085;-79
2022/09/09 19:21:48;;;;;;;7.20;2.60;;;;;;;22.25;55.03;100771.75;4880476;29;20508;-79
2022/09/09 19:26:42;;;;;;;5.45;2.70;;;;;;;22.23;55.04;100766.56;4877777;29;20060;-79
2022/09/09 19:29:15;;;;;;;5.90;2.80;;;;;;;22.25;54.77;100777.84;4854701;29;20053;-79
2022/09/09 19:31:42;;;;;;;4.10;2.33;;;;;;;22.25;54.75;100777.84;4859761;29;20176;-79
2022/09/09 19:34:08;;;;;;;7.13;2.60;;;;;;;22.22;54.95;100783.19;4861038;29;20056;-78
2022/09/09 19:36:34;;;;;;;6.18;2.80;;;;;;;22.23;54.87;100781.44;4863068;29;20519;-78
2022/09/09 19:39:00;;;;;;;5.40;2.53;;;;;;;22.23;54.87;100782.28;4838707;29;20474;-79
2022/09/09 19:41:27;;;;;;;5.50;2.95;;;;;;;22.20;54.80;100782.34;4843439;29;20071;-78
2022/09/09 19:44:02;;;;;;;4.93;2.63;;;;;;;22.21;54.77;100781.47;4883909;29;20117;-79
2022/09/09 19:46:29;;;;;;;8.63;2.70;;;;;;;22.19;54.67;100780.66;4863308;29;20085;-79
2022/09/09 19:48:55;;;;;;;5.20;2.20;;;;;;;22.22;54.71;100784.94;4882718;29;20084;-79
2022/09/09 19:51:22;;;;;;;4.97;2.40;;;;;;;22.18;54.32;100782.38;4864605;29;20053;-79
2022/09/09 19:53:57;;;;;;;4.38;2.03;;;;;;;22.19;54.66;100776.25;4866224;29;20060;-79
2022/09/09 19:56:26;;;;;;;5.70;2.50;;;;;;;22.21;54.46;100775.34;4863688;29;20064;-79
2022/09/09 19:58:56;;;;;;;7.85;2.38;;;;;;;22.22;54.47;100779.69;4864152;29;20121;-79
2022/09/09 20:01:25;;;;;;;4.32;1.88;;;;;;;22.19;54.58;100781.50;4845989;29;20140;-79
2022/09/09 20:03:53;;;;;;;5.07;2.30;;;;;;;22.17;54.69;100787.69;4863648;29;20048;-79
2022/09/09 20:06:22;;;;;;;5.20;2.13;;;;;;;22.19;54.46;100799.00;4881096;29;20049;-78
2022/09/09 20:08:48;;;;;;;6.25;2.40;;;;;;;22.18;54.67;100794.66;4828260;29;20046;-79
2022/09/09 20:13:39;;;;;;;5.63;2.28;;;;;;;22.14;54.64;100803.50;4842227;29;20144;-79
2022/09/09 20:18:42;;;;;;;6.60;2.60;;;;;;;22.12;54.71;100805.31;4875728;29;20088;-78
2022/09/09 20:21:11;;;;;;;3.95;2.00;;;;;;;22.14;54.46;100808.75;4861007;29;20053;-79
2022/09/09 20:23:37;;;;;;;4.65;2.03;;;;;;;22.10;54.48;100810.63;4825455;29;20165;-79
2022/09/09 20:26:08;;;;;;;5.97;2.10;;;;;;;22.15;54.20;100813.94;4859686;29;20144;-78
2022/09/09 20:28:34;;;;;;;6.15;2.10;;;;;;;22.21;54.48;100814.66;4833336;29;20060;-78
2022/09/09 20:31:05;;;;;;;5.93;2.08;;;;;;;22.33;54.14;100811.72;4847852;29;20069;-79
2022/09/09 20:33:31;;;;;;;6.22;2.10;;;;;;;22.35;54.08;100807.28;4845135;29;20526;-78
2022/09/09 20:35:58;;;;;;;6.90;1.90;;;;;;;22.37;53.83;100811.59;4845860;29;20053;-78
2022/09/09 20:38:24;;;;;;;5.32;1.92;;;;;;;22.38;54.08;100808.06;4874867;29;20055;-79